< < Back
Terminal Aerodrome Forecast


Current Version              Previous Versions:   1  2  3  4  5  6  7  8  9  

Terminal Aerodrome Forecast

009
FTUS42 KJAX 111131
TAFGNV
TAF
KGNV 111131Z 1112/1212 VRB04KT P6SM SKC
     FM111700 23009KT P6SM FEW250
     FM120500 22003KT P6SM SCT015=

Latest METAR

411
SAUS70 KWBC 111300 RRL
MTRGNV
METAR KGNV 111253Z 00000KT 10SM CLR 00/M02 A3032 RMK AO2 SLP268
T00001017


USA.gov is the U.S. government's official web portal to all federal, state and local government web resources and services.